ASL30D LYBE-LYTV
Flight info
| Callsign | ASL30D |
|---|---|
| Flight time | 0h 38m |
| Altitude | 30000 |
| Route | VAL DCT MOJ/N0355F190 N732 POD |
| Aircraft | A320/M-SDE3FGHIRWY/LB1 |
Departure
| Time | 2026-04-27 14:26 |
|---|---|
| Airport | Belgrade Nikola Tesla Airport (LYBE) |
Arrival
| Time | 2026-04-27 15:04 |
|---|---|
| Airport | Tivat Airport (LYTV) |
| Time | Latitude | Longitude | Altitude | Speed | Heading |
|---|---|---|---|---|---|
| 2026-04-27 14:06 | 44.81936 | 20.29273 | 323 ft | 0 kts | 302° |
| 2026-04-27 14:16 | 44.81926 | 20.29291 | 318 ft | 2 kts | 302° |
| 2026-04-27 14:17 | 44.81917 | 20.29311 | 316 ft | 2 kts | 319° |
| 2026-04-27 14:17 | 44.81904 | 20.29324 | 317 ft | 2 kts | 336° |
| 2026-04-27 14:17 | 44.81888 | 20.29332 | 316 ft | 2 kts | 359° |
| 2026-04-27 14:17 | 44.81877 | 20.29331 | 317 ft | 1 kts | 26° |
| 2026-04-27 14:18 | 44.81875 | 20.29330 | 317 ft | 0 kts | 29° |
| 2026-04-27 14:21 | 44.81876 | 20.29331 | 317 ft | 1 kts | 28° |
| 2026-04-27 14:21 | 44.81907 | 20.29355 | 318 ft | 7 kts | 30° |
| 2026-04-27 14:21 | 44.81956 | 20.29399 | 318 ft | 10 kts | 33° |
| 2026-04-27 14:21 | 44.82022 | 20.29458 | 318 ft | 13 kts | 31° |
| 2026-04-27 14:22 | 44.82104 | 20.29527 | 319 ft | 15 kts | 26° |
| 2026-04-27 14:22 | 44.82177 | 20.29448 | 318 ft | 16 kts | 301° |
| 2026-04-27 14:22 | 44.82244 | 20.29300 | 319 ft | 20 kts | 302° |
| 2026-04-27 14:22 | 44.82321 | 20.29123 | 319 ft | 23 kts | 301° |
| 2026-04-27 14:23 | 44.82409 | 20.28926 | 317 ft | 21 kts | 301° |
| 2026-04-27 14:23 | 44.82528 | 20.28871 | 318 ft | 16 kts | 33° |
| 2026-04-27 14:23 | 44.82600 | 20.28988 | 318 ft | 17 kts | 66° |
| 2026-04-27 14:23 | 44.82616 | 20.29170 | 318 ft | 20 kts | 101° |
| 2026-04-27 14:24 | 44.82553 | 20.29320 | 317 ft | 8 kts | 122° |
| 2026-04-27 14:24 | 44.82552 | 20.29322 | 318 ft | 0 kts | 122° |
| 2026-04-27 14:25 | 44.82550 | 20.29326 | 318 ft | 6 kts | 122° |
| 2026-04-27 14:25 | 44.82491 | 20.29460 | 320 ft | 49 kts | 122° |
| 2026-04-27 14:25 | 44.82154 | 20.30224 | 315 ft | 118 kts | 121° |
| 2026-04-27 14:25 | 44.81635 | 20.31400 | 317 ft | 164 kts | 121° |
| 2026-04-27 14:26 | 44.80978 | 20.32882 | 615 ft | 184 kts | 122° |
| 2026-04-27 14:26 | 44.80268 | 20.34395 | 1369 ft | 186 kts | 127° |
| 2026-04-27 14:26 | 44.79221 | 20.35508 | 1946 ft | 203 kts | 164° |
| 2026-04-27 14:26 | 44.77729 | 20.35759 | 2341 ft | 227 kts | 177° |
| 2026-04-27 14:27 | 44.76101 | 20.35816 | 3082 ft | 237 kts | 177° |
| 2026-04-27 14:27 | 44.74435 | 20.35878 | 4023 ft | 243 kts | 178° |
| 2026-04-27 14:27 | 44.72719 | 20.35985 | 4870 ft | 250 kts | 178° |
| 2026-04-27 14:27 | 44.70967 | 20.36134 | 5771 ft | 253 kts | 178° |
| 2026-04-27 14:28 | 44.69195 | 20.36316 | 6713 ft | 257 kts | 179° |
| 2026-04-27 14:28 | 44.67398 | 20.36525 | 7569 ft | 261 kts | 178° |
| 2026-04-27 14:28 | 44.65568 | 20.36747 | 8428 ft | 266 kts | 178° |
| 2026-04-27 14:28 | 44.63703 | 20.36980 | 9273 ft | 272 kts | 178° |
| 2026-04-27 14:29 | 44.61798 | 20.37223 | 10109 ft | 277 kts | 178° |
| 2026-04-27 14:29 | 44.59863 | 20.37472 | 10867 ft | 281 kts | 178° |
| 2026-04-27 14:29 | 44.57908 | 20.37723 | 11663 ft | 284 kts | 178° |
| 2026-04-27 14:29 | 44.55929 | 20.37978 | 12415 ft | 288 kts | 178° |
| 2026-04-27 14:30 | 44.53926 | 20.38205 | 13207 ft | 289 kts | 184° |
| 2026-04-27 14:30 | 44.51928 | 20.37772 | 13663 ft | 300 kts | 203° |
| 2026-04-27 14:30 | 44.49908 | 20.36687 | 13878 ft | 322 kts | 205° |
| 2026-04-27 14:30 | 44.47754 | 20.35493 | 14091 ft | 342 kts | 205° |
| 2026-04-27 14:31 | 44.45504 | 20.34250 | 14609 ft | 351 kts | 204° |
| 2026-04-27 14:31 | 44.43219 | 20.32998 | 15255 ft | 355 kts | 204° |
| 2026-04-27 14:31 | 44.40907 | 20.31737 | 15915 ft | 358 kts | 204° |
| 2026-04-27 14:31 | 44.38577 | 20.30469 | 16570 ft | 361 kts | 204° |
| 2026-04-27 14:32 | 44.36225 | 20.29194 | 17244 ft | 364 kts | 205° |
| 2026-04-27 14:32 | 44.33850 | 20.27908 | 17914 ft | 368 kts | 205° |
| 2026-04-27 14:32 | 44.31452 | 20.26609 | 18541 ft | 371 kts | 204° |
| 2026-04-27 14:32 | 44.29031 | 20.25297 | 19135 ft | 375 kts | 204° |
| 2026-04-27 14:33 | 44.26594 | 20.23971 | 19723 ft | 378 kts | 205° |
| 2026-04-27 14:33 | 44.24131 | 20.22631 | 20327 ft | 381 kts | 204° |
| 2026-04-27 14:33 | 44.21612 | 20.21274 | 20925 ft | 385 kts | 204° |
| 2026-04-27 14:33 | 44.19108 | 20.19925 | 21500 ft | 388 kts | 205° |
| 2026-04-27 14:34 | 44.16580 | 20.18556 | 22063 ft | 391 kts | 205° |
| 2026-04-27 14:34 | 44.14035 | 20.17180 | 22606 ft | 395 kts | 204° |
| 2026-04-27 14:34 | 44.11456 | 20.15795 | 23161 ft | 399 kts | 204° |
| 2026-04-27 14:34 | 44.08856 | 20.14403 | 23720 ft | 403 kts | 204° |
| 2026-04-27 14:35 | 44.06229 | 20.12992 | 24174 ft | 405 kts | 205° |
| 2026-04-27 14:35 | 44.03595 | 20.11568 | 24646 ft | 407 kts | 205° |
| 2026-04-27 14:35 | 44.00948 | 20.10138 | 25121 ft | 409 kts | 205° |
| 2026-04-27 14:35 | 43.98283 | 20.08700 | 25581 ft | 411 kts | 205° |
| 2026-04-27 14:36 | 43.95608 | 20.07267 | 26032 ft | 413 kts | 204° |
| 2026-04-27 14:36 | 43.92922 | 20.05831 | 26498 ft | 415 kts | 205° |
| 2026-04-27 14:36 | 43.90219 | 20.04390 | 26940 ft | 417 kts | 205° |
| 2026-04-27 14:36 | 43.87509 | 20.02943 | 27378 ft | 418 kts | 205° |
| 2026-04-27 14:37 | 43.84791 | 20.01486 | 27820 ft | 420 kts | 205° |
| 2026-04-27 14:37 | 43.82053 | 20.00023 | 28241 ft | 422 kts | 205° |
| 2026-04-27 14:37 | 43.79306 | 19.98561 | 28635 ft | 424 kts | 204° |
| 2026-04-27 14:37 | 43.76550 | 19.97099 | 29041 ft | 426 kts | 205° |
| 2026-04-27 14:38 | 43.73769 | 19.95617 | 29422 ft | 429 kts | 205° |
| 2026-04-27 14:38 | 43.70981 | 19.94137 | 29830 ft | 430 kts | 205° |
| 2026-04-27 14:38 | 43.68182 | 19.92650 | 30098 ft | 432 kts | 205° |
| 2026-04-27 14:38 | 43.65420 | 19.91186 | 30149 ft | 418 kts | 205° |
| 2026-04-27 14:39 | 43.62725 | 19.89762 | 30132 ft | 412 kts | 205° |
| 2026-04-27 14:39 | 43.57387 | 19.86940 | 30126 ft | 411 kts | 205° |
| 2026-04-27 14:40 | 43.52046 | 19.84126 | 30127 ft | 411 kts | 205° |
| 2026-04-27 14:40 | 43.46712 | 19.81303 | 30116 ft | 411 kts | 205° |
| 2026-04-27 14:41 | 43.41341 | 19.78473 | 30109 ft | 411 kts | 205° |
| 2026-04-27 14:41 | 43.36002 | 19.75667 | 30101 ft | 411 kts | 205° |
| 2026-04-27 14:42 | 43.30655 | 19.72867 | 30100 ft | 412 kts | 205° |
| 2026-04-27 14:42 | 43.25299 | 19.70077 | 30082 ft | 411 kts | 205° |
| 2026-04-27 14:43 | 43.19947 | 19.67283 | 30092 ft | 412 kts | 205° |
| 2026-04-27 14:43 | 43.14575 | 19.64492 | 30089 ft | 413 kts | 205° |
| 2026-04-27 14:44 | 43.09198 | 19.61698 | 30095 ft | 417 kts | 205° |
| 2026-04-27 14:44 | 43.06452 | 19.60265 | 30103 ft | 428 kts | 204° |
| 2026-04-27 14:44 | 43.03653 | 19.58807 | 30101 ft | 433 kts | 204° |
| 2026-04-27 14:45 | 42.98011 | 19.55886 | 30103 ft | 434 kts | 204° |
| 2026-04-27 14:45 | 42.92354 | 19.52964 | 30101 ft | 434 kts | 204° |
| 2026-04-27 14:46 | 42.86680 | 19.50034 | 30098 ft | 438 kts | 204° |
| 2026-04-27 14:46 | 42.81003 | 19.47114 | 30072 ft | 426 kts | 204° |
| 2026-04-27 14:46 | 42.78272 | 19.45722 | 29889 ft | 414 kts | 204° |
| 2026-04-27 14:47 | 42.75597 | 19.44355 | 29556 ft | 407 kts | 204° |
| 2026-04-27 14:47 | 42.72962 | 19.43003 | 29106 ft | 403 kts | 204° |
| 2026-04-27 14:47 | 42.70316 | 19.41641 | 28636 ft | 400 kts | 204° |
| 2026-04-27 14:47 | 42.67711 | 19.40298 | 27823 ft | 405 kts | 204° |
| 2026-04-27 14:48 | 42.65062 | 19.38929 | 26723 ft | 408 kts | 204° |
| 2026-04-27 14:48 | 42.59772 | 19.36214 | 24742 ft | 403 kts | 204° |
| 2026-04-27 14:48 | 42.57153 | 19.34883 | 23843 ft | 399 kts | 204° |
| 2026-04-27 14:49 | 42.54569 | 19.33571 | 22922 ft | 394 kts | 203° |
| 2026-04-27 14:49 | 42.52020 | 19.32275 | 22028 ft | 389 kts | 203° |
| 2026-04-27 14:49 | 42.49504 | 19.30999 | 21155 ft | 383 kts | 203° |
| 2026-04-27 14:49 | 42.47033 | 19.29749 | 20238 ft | 377 kts | 202° |
| 2026-04-27 14:50 | 42.44593 | 19.28510 | 19351 ft | 373 kts | 202° |
| 2026-04-27 14:50 | 42.42178 | 19.27280 | 18498 ft | 369 kts | 202° |
| 2026-04-27 14:50 | 42.39794 | 19.26067 | 17558 ft | 364 kts | 202° |
| 2026-04-27 14:50 | 42.37397 | 19.25019 | 16585 ft | 361 kts | 196° |
| 2026-04-27 14:51 | 42.34996 | 19.24147 | 15944 ft | 350 kts | 196° |
| 2026-04-27 14:51 | 42.32695 | 19.23317 | 15501 ft | 335 kts | 196° |
| 2026-04-27 14:51 | 42.30483 | 19.22522 | 15058 ft | 323 kts | 196° |
| 2026-04-27 14:51 | 42.29029 | 19.22000 | 14776 ft | 316 kts | 197° |
| 2026-04-27 14:52 | 42.26271 | 19.21010 | 14230 ft | 306 kts | 196° |
| 2026-04-27 14:52 | 42.24205 | 19.20268 | 13818 ft | 307 kts | 196° |
| 2026-04-27 14:52 | 42.22140 | 19.19527 | 13381 ft | 309 kts | 196° |
| 2026-04-27 14:52 | 42.20059 | 19.18781 | 12964 ft | 310 kts | 195° |
| 2026-04-27 14:53 | 42.18653 | 19.18278 | 12679 ft | 310 kts | 195° |
| 2026-04-27 14:53 | 42.16563 | 19.17528 | 12278 ft | 312 kts | 196° |
| 2026-04-27 14:53 | 42.14471 | 19.16777 | 12020 ft | 308 kts | 196° |
| 2026-04-27 14:53 | 42.12431 | 19.16043 | 11888 ft | 299 kts | 196° |
| 2026-04-27 14:54 | 42.10445 | 19.15332 | 11762 ft | 292 kts | 196° |
| 2026-04-27 14:54 | 42.08528 | 19.14550 | 11595 ft | 285 kts | 205° |
| 2026-04-27 14:54 | 42.06889 | 19.13138 | 11482 ft | 277 kts | 224° |
| 2026-04-27 14:54 | 42.05642 | 19.11110 | 11098 ft | 281 kts | 242° |
| 2026-04-27 14:55 | 42.04882 | 19.08725 | 10639 ft | 276 kts | 250° |
| 2026-04-27 14:55 | 42.04198 | 19.06333 | 10162 ft | 273 kts | 250° |
| 2026-04-27 14:55 | 42.03511 | 19.03950 | 9617 ft | 273 kts | 250° |
| 2026-04-27 14:55 | 42.02822 | 19.01578 | 9132 ft | 271 kts | 249° |
| 2026-04-27 14:56 | 42.02145 | 18.99247 | 8677 ft | 265 kts | 249° |
| 2026-04-27 14:56 | 42.01754 | 18.96863 | 8226 ft | 261 kts | 273° |
| 2026-04-27 14:56 | 42.02238 | 18.94528 | 7785 ft | 264 kts | 302° |
| 2026-04-27 14:56 | 42.03516 | 18.92807 | 7435 ft | 262 kts | 330° |
| 2026-04-27 14:57 | 42.05204 | 18.91900 | 7163 ft | 260 kts | 341° |
| 2026-04-27 14:57 | 42.06898 | 18.91065 | 6880 ft | 258 kts | 340° |
| 2026-04-27 14:57 | 42.08570 | 18.90203 | 6602 ft | 257 kts | 340° |
| 2026-04-27 14:57 | 42.10239 | 18.89331 | 6285 ft | 257 kts | 339° |
| 2026-04-27 14:58 | 42.11900 | 18.88463 | 5969 ft | 256 kts | 340° |
| 2026-04-27 14:58 | 42.13560 | 18.87599 | 5654 ft | 255 kts | 339° |
| 2026-04-27 14:58 | 42.15185 | 18.86656 | 5353 ft | 254 kts | 337° |
| 2026-04-27 14:58 | 42.16817 | 18.85764 | 5059 ft | 253 kts | 339° |
| 2026-04-27 14:59 | 42.18479 | 18.84915 | 4415 ft | 257 kts | 339° |
| 2026-04-27 14:59 | 42.20089 | 18.84101 | 4283 ft | 238 kts | 339° |
| 2026-04-27 14:59 | 42.21572 | 18.83347 | 4143 ft | 219 kts | 339° |
| 2026-04-27 14:59 | 42.22960 | 18.82640 | 3927 ft | 206 kts | 339° |
| 2026-04-27 15:00 | 42.24265 | 18.81975 | 3755 ft | 196 kts | 339° |
| 2026-04-27 15:00 | 42.25525 | 18.81333 | 3373 ft | 191 kts | 338° |
| 2026-04-27 15:00 | 42.26763 | 18.80701 | 2838 ft | 189 kts | 338° |
| 2026-04-27 15:00 | 42.27981 | 18.80081 | 2523 ft | 173 kts | 337° |
| 2026-04-27 15:01 | 42.29023 | 18.79550 | 2374 ft | 154 kts | 336° |
| 2026-04-27 15:01 | 42.29969 | 18.79067 | 2150 ft | 137 kts | 336° |
| 2026-04-27 15:01 | 42.30868 | 18.78607 | 1718 ft | 135 kts | 337° |
| 2026-04-27 15:01 | 42.31754 | 18.78154 | 1217 ft | 137 kts | 339° |
| 2026-04-27 15:02 | 42.32644 | 18.77788 | 1053 ft | 135 kts | 343° |
| 2026-04-27 15:02 | 42.33562 | 18.77504 | 1178 ft | 137 kts | 343° |
| 2026-04-27 15:02 | 42.34481 | 18.77137 | 1082 ft | 134 kts | 337° |
| 2026-04-27 15:02 | 42.35363 | 18.76674 | 1137 ft | 139 kts | 335° |
| 2026-04-27 15:03 | 42.36244 | 18.76126 | 935 ft | 140 kts | 331° |
| 2026-04-27 15:03 | 42.37113 | 18.75503 | 688 ft | 143 kts | 330° |
| 2026-04-27 15:03 | 42.37972 | 18.74892 | 525 ft | 134 kts | 328° |
| 2026-04-27 15:03 | 42.38750 | 18.74278 | 297 ft | 126 kts | 324° |
| 2026-04-27 15:04 | 42.39472 | 18.73497 | 98 ft | 148 kts | 316° |
| 2026-04-27 15:04 | 42.40214 | 18.72621 | 5 ft | 121 kts | 320° |
| 2026-04-27 15:04 | 42.40716 | 18.72030 | 2 ft | 71 kts | 319° |
| 2026-04-27 15:04 | 42.40978 | 18.71729 | 6 ft | 40 kts | 318° |
| 2026-04-27 15:05 | 42.41197 | 18.71470 | 1 ft | 41 kts | 319° |
| 2026-04-27 15:05 | 42.41324 | 18.71376 | 1 ft | 14 kts | 26° |
| 2026-04-27 15:05 | 42.41339 | 18.71481 | 4 ft | 13 kts | 127° |
| 2026-04-27 15:05 | 42.41260 | 18.71567 | 4 ft | 15 kts | 143° |
| 2026-04-27 15:06 | 42.41186 | 18.71657 | 7 ft | 14 kts | 138° |
| 2026-04-27 15:06 | 42.41170 | 18.71728 | 8 ft | 7 kts | 61° |
| 2026-04-27 15:06 | 42.41155 | 18.71748 | 8 ft | 3 kts | 169° |
| 2026-04-27 15:06 | 42.41151 | 18.71749 | 8 ft | 0 kts | 168° |